Time;durP1;ratioP1;P1;durP2;ratioP2;P2;SDS_P1;SDS_P2;PMS_P1;PMS_P2;Temp;Humidity;BMP_temperature;BMP_pressure;BME280_temperature;BME280_humidity;BME280_pressure;Samples;Min_cycle;Max_cycle;Signal;HPM_P1;HPM_P2
2023/06/03 00:02:22;;;;;;;6.13;2.60;;;14.40;87.20;;;;;;10223870;28;20224;-70
2023/06/03 00:07:22;;;;;;;5.57;2.87;;;14.40;87.70;;;;;;10221681;28;20249;-70
2023/06/03 00:12:23;;;;;;;6.40;3.10;;;14.30;88.30;;;;;;10226399;28;20265;-70
2023/06/03 00:17:26;;;;;;;11.47;2.60;;;14.20;89.00;;;;;;10230477;28;20250;-71
2023/06/03 00:22:27;;;;;;;7.20;2.67;;;14.10;89.70;;;;;;10229222;28;20281;-69
2023/06/03 00:27:28;;;;;;;6.77;2.93;;;14.10;90.10;;;;;;10228710;28;20224;-70
2023/06/03 00:32:29;;;;;;;8.63;2.70;;;14.00;90.40;;;;;;10235871;28;20234;-71
2023/06/03 00:37:30;;;;;;;5.40;2.70;;;13.90;90.70;;;;;;10222270;28;20234;-69
2023/06/03 00:42:30;;;;;;;9.90;2.73;;;13.90;91.00;;;;;;10235924;28;20707;-70
2023/06/03 00:47:31;;;;;;;6.83;2.90;;;13.80;91.30;;;;;;10228669;28;20235;-69
2023/06/03 00:52:33;;;;;;;6.00;2.60;;;13.80;91.60;;;;;;10235732;28;20249;-69
2023/06/03 00:57:34;;;;;;;8.03;2.67;;;13.70;92.00;;;;;;10228701;28;20927;-69
2023/06/03 01:02:36;;;;;;;9.20;3.40;;;13.60;92.50;;;;;;10228691;28;20224;-69
2023/06/03 01:08:09;;;;;;;9.57;2.93;;;13.60;92.80;;;;;;10221309;28;20289;-70
2023/06/03 01:13:28;;;;;;;6.83;2.80;;;13.50;93.20;;;;;;10230891;28;20231;-68
2023/06/03 01:18:29;;;;;;;5.90;2.60;;;13.50;93.70;;;;;;10228085;28;20215;-70
2023/06/03 01:23:33;;;;;;;8.17;2.77;;;13.40;94.40;;;;;;10220001;28;20252;-68
2023/06/03 01:28:38;;;;;;;7.70;3.00;;;13.40;95.00;;;;;;10226741;28;20223;-70
2023/06/03 01:33:40;;;;;;;7.63;2.77;;;13.30;95.90;;;;;;10234821;28;20243;-69
2023/06/03 01:38:41;;;;;;;7.20;2.87;;;13.30;96.60;;;;;;10221582;28;20251;-70
2023/06/03 01:43:41;;;;;;;5.97;3.10;;;13.20;97.50;;;;;;10228614;28;20228;-68
2023/06/03 01:48:42;;;;;;;6.87;2.97;;;13.20;98.40;;;;;;10226662;28;20227;-69
2023/06/03 01:53:43;;;;;;;7.27;3.10;;;13.10;99.30;;;;;;10221326;28;20259;-69
2023/06/03 01:58:44;;;;;;;7.77;3.80;;;13.00;99.90;;;;;;10227704;28;20215;-70
2023/06/03 02:03:44;;;;;;;12.33;5.10;;;13.00;99.90;;;;;;10227757;28;20327;-68
2023/06/03 02:08:45;;;;;;;13.80;5.30;;;12.90;99.90;;;;;;10224270;28;20220;-69
2023/06/03 02:13:45;;;;;;;11.83;4.97;;;12.90;99.90;;;;;;10220783;28;20311;-69
2023/06/03 02:18:46;;;;;;;7.60;4.30;;;12.90;99.90;;;;;;10225089;28;20215;-67
2023/06/03 02:23:46;;;;;;;6.87;3.90;;;12.80;99.90;;;;;;10225939;28;20265;-70
2023/06/03 02:28:47;;;;;;;7.10;3.67;;;12.80;99.90;;;;;;10223414;28;20219;-69
2023/06/03 02:33:48;;;;;;;9.53;4.00;;;12.80;99.90;;;;;;10219507;28;20224;-69
2023/06/03 02:38:48;;;;;;;10.07;3.93;;;12.80;99.90;;;;;;10224096;28;20652;-69
2023/06/03 02:43:49;;;;;;;7.33;3.53;;;12.80;99.90;;;;;;10226704;28;20223;-69
2023/06/03 02:48:50;;;;;;;8.07;3.63;;;12.80;99.90;;;;;;10232935;28;20361;-68
2023/06/03 02:53:53;;;;;;;8.27;3.57;;;12.70;99.90;;;;;;10229434;28;20257;-68
2023/06/03 02:58:56;;;;;;;12.50;3.93;;;12.70;99.90;;;;;;10231377;28;20219;-70
2023/06/03 03:03:58;;;;;;;9.67;3.60;;;12.70;99.90;;;;;;10221971;28;20273;-69
2023/06/03 03:08:58;;;;;;;8.70;3.90;;;12.70;99.90;;;;;;10225453;28;20224;-68
2023/06/03 03:14:00;;;;;;;9.73;4.10;;;12.60;99.90;;;;;;10227571;28;20219;-70
2023/06/03 03:19:00;;;;;;;10.13;4.03;;;12.60;99.90;;;;;;10221452;28;20338;-70
2023/06/03 03:24:01;;;;;;;8.70;3.93;;;12.50;99.90;;;;;;10221216;28;20237;-69
2023/06/03 03:29:02;;;;;;;9.20;3.83;;;12.50;99.90;;;;;;10225877;28;20239;-69
2023/06/03 03:34:03;;;;;;;14.83;4.10;;;12.50;99.90;;;;;;10223913;28;20713;-69
2023/06/03 03:39:07;;;;;;;7.87;3.60;;;12.50;99.90;;;;;;10221132;28;20228;-68
2023/06/03 03:44:07;;;;;;;7.13;3.43;;;12.50;99.90;;;;;;10228037;28;20720;-70
2023/06/03 03:49:13;;;;;;;10.73;3.93;;;12.60;99.90;;;;;;10222155;28;20326;-69
2023/06/03 03:54:14;;;;;;;7.63;3.90;;;12.50;99.90;;;;;;10224513;28;20212;-69
2023/06/03 03:59:17;;;;;;;9.13;3.77;;;12.60;99.90;;;;;;10223724;28;20587;-69
2023/06/03 04:04:43;;;;;;;8.53;3.80;;;12.60;99.90;;;;;;10217140;28;20707;-68
2023/06/03 04:09:45;;;;;;;8.93;3.73;;;12.60;99.90;;;;;;10215652;28;20315;-69
2023/06/03 04:14:50;;;;;;;8.90;3.83;;;12.70;99.90;;;;;;10222291;28;20220;-69
2023/06/03 04:19:50;;;;;;;10.67;4.33;;;12.70;99.90;;;;;;10227226;28;20215;-69
2023/06/03 04:24:56;;;;;;;6.77;3.93;;;12.80;99.90;;;;;;10217335;28;20234;-69
2023/06/03 04:29:57;;;;;;;8.60;3.90;;;12.90;99.90;;;;;;10223088;28;20314;-70
2023/06/03 04:34:58;;;;;;;14.73;4.73;;;13.00;99.90;;;;;;10219463;28;20302;-68
2023/06/03 04:39:58;;;;;;;8.90;3.93;;;13.30;99.90;;;;;;10225823;28;20240;-69
2023/06/03 04:45:00;;;;;;;12.33;5.10;;;13.60;99.90;;;;;;10229843;28;20243;-70
2023/06/03 04:50:04;;;;;;;18.90;4.27;;;13.60;99.90;;;;;;10226173;28;20222;-70
2023/06/03 04:55:05;;;;;;;10.20;4.33;;;13.60;99.90;;;;;;10230825;28;20588;-69
2023/06/03 05:00:07;;;;;;;10.10;4.23;;;13.80;99.90;;;;;;10233811;28;20598;-69
2023/06/03 05:05:10;;;;;;;11.60;4.20;;;14.50;99.90;;;;;;10229032;28;20206;-70
2023/06/03 05:10:11;;;;;;;10.97;4.37;;;16.40;97.10;;;;;;10223200;28;20623;-70
2023/06/03 05:15:12;;;;;;;8.97;3.90;;;17.50;92.60;;;;;;10224020;28;20195;-69
2023/06/03 05:20:12;;;;;;;12.00;4.20;;;18.20;88.80;;;;;;10229728;28;20675;-68
2023/06/03 05:25:13;;;;;;;8.83;4.10;;;18.20;86.80;;;;;;10231612;28;20188;-70
2023/06/03 05:30:14;;;;;;;9.17;3.40;;;18.90;82.30;;;;;;10222798;28;20231;-69
2023/06/03 05:35:15;;;;;;;6.07;3.47;;;19.20;79.00;;;;;;10232520;28;20679;-70
2023/06/03 05:40:16;;;;;;;9.83;3.70;;;19.50;75.70;;;;;;10233758;28;20207;-69
2023/06/03 05:45:16;;;;;;;7.53;3.20;;;19.30;75.90;;;;;;10240485;28;20195;-70
2023/06/03 05:50:17;;;;;;;8.47;4.00;;;19.90;72.70;;;;;;10221249;28;20204;-69
2023/06/03 05:55:17;;;;;;;5.63;3.33;;;20.30;70.30;;;;;;10228319;28;20425;-68
2023/06/03 06:00:18;;;;;;;8.07;3.90;;;19.80;71.80;;;;;;10220413;28;20312;-69
2023/06/03 06:05:19;;;;;;;6.70;3.70;;;19.20;72.30;;;;;;10219590;28;20194;-68
2023/06/03 06:10:19;;;;;;;4.37;2.70;;;18.40;75.40;;;;;;10233178;28;20208;-68
2023/06/03 06:15:21;;;;;;;7.83;2.83;;;17.80;77.80;;;;;;10224090;28;20176;-70
2023/06/03 06:20:22;;;;;;;5.53;2.70;;;17.40;78.10;;;;;;10226161;28;20526;-69
2023/06/03 06:25:23;;;;;;;6.10;3.20;;;17.20;79.10;;;;;;10219513;28;20193;-70
2023/06/03 06:30:23;;;;;;;4.23;2.50;;;17.70;77.30;;;;;;10231441;28;20368;-69
2023/06/03 06:35:26;;;;;;;6.20;3.20;;;18.30;75.40;;;;;;10219204;28;20233;-70
2023/06/03 06:40:32;;;;;;;3.87;2.40;;;19.50;70.50;;;;;;10224880;28;20553;-69
2023/06/03 06:45:36;;;;;;;4.53;2.77;;;19.60;68.80;;;;;;10217981;28;20243;-69
2023/06/03 06:50:43;;;;;;;5.67;2.70;;;19.10;71.30;;;;;;10225696;28;20334;-71
2023/06/03 06:55:46;;;;;;;4.37;2.30;;;20.20;68.50;;;;;;10236447;28;20230;-68
2023/06/03 07:00:48;;;;;;;5.93;2.63;;;20.00;67.60;;;;;;10222999;28;20290;-71
2023/06/03 07:05:52;;;;;;;5.00;2.60;;;19.70;68.80;;;;;;10225468;28;20712;-69
2023/06/03 07:10:59;;;;;;;7.33;2.40;;;21.30;65.10;;;;;;10230745;28;20243;-70
2023/06/03 07:16:00;;;;;;;3.50;2.40;;;21.10;64.70;;;;;;10226957;28;20239;-70
2023/06/03 07:21:00;;;;;;;5.07;2.60;;;21.80;61.90;;;;;;10225490;28;20240;-70
2023/06/03 07:26:03;;;;;;;5.67;2.67;;;23.40;58.10;;;;;;10227408;28;20251;-69
2023/06/03 07:31:10;;;;;;;4.20;2.50;;;23.60;56.40;;;;;;10221528;28;20259;-70
2023/06/03 07:36:13;;;;;;;4.27;2.50;;;24.20;54.70;;;;;;10229581;28;20277;-71
2023/06/03 07:41:31;;;;;;;4.87;2.23;;;23.60;56.20;;;;;;10241225;28;20709;-69
2023/06/03 07:46:44;;;;;;;4.53;2.50;;;24.40;55.20;;;;;;10228993;28;20246;-69
2023/06/03 07:51:48;;;;;;;4.97;2.50;;;25.60;52.20;;;;;;10216911;28;20235;-69
2023/06/03 07:56:48;;;;;;;5.13;2.60;;;25.20;51.50;;;;;;10227617;28;20241;-70
2023/06/03 08:01:51;;;;;;;7.63;2.77;;;23.60;54.80;;;;;;10229192;28;20221;-69
2023/06/03 08:06:52;;;;;;;6.10;2.77;;;23.00;56.40;;;;;;10219984;28;20299;-70
2023/06/03 08:11:57;;;;;;;4.33;2.70;;;23.60;55.20;;;;;;10218348;28;20281;-70
2023/06/03 08:17:03;;;;;;;4.67;2.50;;;24.40;53.90;;;;;;10226301;28;20591;-70
2023/06/03 08:22:30;;;;;;;4.43;2.47;;;24.20;53.80;;;;;;10224476;28;20238;-70
2023/06/03 08:27:31;;;;;;;7.53;2.47;;;24.90;53.40;;;;;;10221943;28;20301;-70
2023/06/03 08:32:33;;;;;;;4.33;2.70;;;25.90;51.10;;;;;;10216675;28;20322;-70
2023/06/03 08:37:34;;;;;;;6.97;2.90;;;25.60;51.30;;;;;;10221134;28;20277;-70
2023/06/03 08:42:40;;;;;;;6.07;3.30;;;26.10;50.40;;;;;;10227568;28;20253;-71
2023/06/03 08:48:07;;;;;;;7.40;2.93;;;27.10;48.80;;;;;;10226454;28;20232;-69
2023/06/03 08:53:11;;;;;;;9.90;3.30;;;28.30;46.60;;;;;;10232039;28;20239;-70
2023/06/03 08:58:32;;;;;;;7.10;2.97;;;29.00;45.20;;;;;;10226180;28;20239;-69
2023/06/03 09:03:36;;;;;;;4.50;2.87;;;29.10;44.70;;;;;;10237614;28;20250;-71
2023/06/03 09:08:39;;;;;;;6.90;3.07;;;29.60;43.50;;;;;;10227015;28;20247;-70
2023/06/03 09:13:41;;;;;;;8.43;3.07;;;29.50;43.30;;;;;;10221406;28;20225;-70
2023/06/03 09:18:43;;;;;;;7.23;3.27;;;30.90;42.60;;;;;;10226368;28;20234;-69
2023/06/03 09:23:44;;;;;;;4.23;2.50;;;31.40;40.50;;;;;;10228062;28;20224;-70
2023/06/03 09:28:47;;;;;;;5.97;3.03;;;31.20;40.30;;;;;;10227095;28;20231;-70
2023/06/03 09:33:49;;;;;;;6.00;3.33;;;30.90;40.40;;;;;;10225843;28;20226;-70
2023/06/03 09:38:56;;;;;;;6.63;3.50;;;28.60;43.60;;;;;;10220981;28;20234;-71
2023/06/03 09:44:02;;;;;;;4.43;3.10;;;27.20;46.70;;;;;;10226789;28;20660;-70
2023/06/03 09:49:09;;;;;;;9.27;3.30;;;27.20;46.60;;;;;;10227499;28;20249;-70
2023/06/03 09:54:14;;;;;;;5.13;3.43;;;25.90;47.80;;;;;;10229714;28;20220;-70
2023/06/03 09:59:25;;;;;;;6.63;3.20;;;25.50;49.10;;;;;;10228703;28;20236;-69
2023/06/03 10:04:40;;;;;;;7.50;3.00;;;26.20;48.40;;;;;;10225449;28;20679;-69
2023/06/03 10:09:44;;;;;;;4.63;2.80;;;26.20;48.00;;;;;;10217939;28;20301;-70
2023/06/03 10:14:47;;;;;;;4.40;2.90;;;25.90;49.20;;;;;;10224467;28;20800;-70
2023/06/03 10:19:48;;;;;;;6.60;3.07;;;28.10;45.80;;;;;;10218255;28;20319;-69
2023/06/03 10:24:49;;;;;;;6.93;3.40;;;30.10;42.60;;;;;;10226010;28;20329;-70
2023/06/03 10:29:56;;;;;;;8.60;3.33;;;31.20;40.80;;;;;;10222150;28;20254;-69
2023/06/03 10:34:59;;;;;;;4.87;3.50;;;31.60;40.20;;;;;;10227088;28;20216;-71
2023/06/03 10:40:00;;;;;;;5.27;3.43;;;31.00;39.10;;;;;;10220490;28;20239;-69
2023/06/03 10:45:01;;;;;;;9.90;3.50;;;28.20;44.00;;;;;;10225511;28;20216;-70
2023/06/03 10:50:28;;;;;;;5.83;3.43;;;26.50;46.60;;;;;;10212427;28;20334;-70
2023/06/03 10:55:47;;;;;;;10.10;3.27;;;26.90;46.10;;;;;;10217161;28;20220;-70
2023/06/03 11:00:59;;;;;;;6.53;3.30;;;27.20;45.80;;;;;;10224956;28;20231;-70
2023/06/03 11:06:23;;;;;;;7.67;3.17;;;27.40;45.60;;;;;;10228735;28;20222;-70
2023/06/03 11:11:41;;;;;;;3.50;2.93;;;27.90;45.40;;;;;;10205635;28;20736;-70
2023/06/03 11:16:57;;;;;;;6.63;3.60;;;28.10;44.60;;;;;;10217541;28;20904;-68
2023/06/03 11:22:07;;;;;;;5.23;3.63;;;29.80;42.00;;;;;;10221879;28;20726;-71
2023/06/03 11:27:12;;;;;;;7.20;3.70;;;30.20;41.60;;;;;;10227331;28;20225;-70
2023/06/03 11:32:24;;;;;;;8.43;4.33;;;29.70;40.60;;;;;;10223705;28;20837;-69
2023/06/03 11:37:43;;;;;;;6.63;3.60;;;28.80;42.50;;;;;;10225191;28;20573;-71
2023/06/03 11:42:46;;;;;;;7.00;3.87;;;27.10;45.30;;;;;;10222964;28;20242;-69
2023/06/03 11:47:51;;;;;;;9.73;3.77;;;26.10;47.70;;;;;;10221400;28;20764;-69
2023/06/03 11:52:52;;;;;;;9.23;3.57;;;25.60;48.60;;;;;;10224499;28;20703;-69
2023/06/03 11:58:00;;;;;;;6.20;3.57;;;25.20;49.30;;;;;;10222672;28;20247;-68
2023/06/03 12:03:00;;;;;;;12.23;4.47;;;24.90;50.40;;;;;;10218083;28;20779;-70
2023/06/03 12:08:04;;;;;;;6.83;3.37;;;24.40;51.00;;;;;;10223244;28;20219;-70
2023/06/03 12:13:08;;;;;;;8.50;3.40;;;24.40;51.40;;;;;;10232691;28;20698;-69
2023/06/03 12:18:09;;;;;;;7.90;4.10;;;24.20;51.70;;;;;;10226127;28;20379;-69
2023/06/03 12:23:10;;;;;;;7.23;3.50;;;24.40;51.50;;;;;;10224687;28;20320;-69
2023/06/03 12:28:25;;;;;;;8.40;3.40;;;24.30;51.40;;;;;;10233464;28;20711;-70
2023/06/03 12:33:42;;;;;;;4.27;3.60;;;24.50;52.30;;;;;;10236432;28;20737;-69
2023/06/03 12:38:54;;;;;;;6.53;3.57;;;24.30;51.40;;;;;;10228564;28;20219;-70
2023/06/03 12:44:00;;;;;;;9.17;4.47;;;24.30;51.50;;;;;;10229295;28;20265;-71
2023/06/03 12:49:16;;;;;;;10.50;4.03;;;24.20;51.70;;;;;;10232110;28;20228;-69
2023/06/03 12:54:17;;;;;;;8.63;4.20;;;24.20;52.20;;;;;;10241004;28;20222;-70
2023/06/03 12:59:17;;;;;;;6.13;3.50;;;23.90;52.60;;;;;;10229983;28;20231;-69
2023/06/03 13:04:20;;;;;;;6.37;3.80;;;23.90;52.20;;;;;;10236803;28;20227;-70
2023/06/03 13:09:20;;;;;;;9.47;3.70;;;24.20;51.80;;;;;;10232214;28;20314;-69
2023/06/03 13:14:21;;;;;;;6.67;3.70;;;24.40;51.30;;;;;;10221644;28;20234;-70
2023/06/03 13:19:22;;;;;;;7.67;3.53;;;24.40;51.50;;;;;;10230776;28;20389;-70
2023/06/03 13:24:23;;;;;;;6.13;3.40;;;24.30;51.40;;;;;;10226568;28;20226;-69
2023/06/03 13:29:23;;;;;;;7.63;3.70;;;24.30;51.10;;;;;;10226012;28;20227;-70
2023/06/03 13:34:24;;;;;;;7.07;4.53;;;24.30;51.10;;;;;;10225817;28;20215;-70
2023/06/03 13:39:25;;;;;;;6.47;3.70;;;24.50;50.70;;;;;;10223753;28;20785;-69
2023/06/03 13:44:26;;;;;;;5.77;3.23;;;24.50;51.40;;;;;;10226358;28;20224;-70
2023/06/03 13:49:26;;;;;;;8.30;3.50;;;24.70;50.90;;;;;;10224036;28;20285;-69
2023/06/03 13:54:27;;;;;;;7.13;3.43;;;24.60;50.50;;;;;;10223486;28;20288;-69
2023/06/03 13:59:29;;;;;;;7.47;3.53;;;24.40;50.50;;;;;;10232088;28;20354;-69
2023/06/03 14:04:34;;;;;;;5.40;3.60;;;24.10;51.00;;;;;;10227545;28;20223;-70
2023/06/03 14:09:35;;;;;;;4.37;3.50;;;24.00;50.90;;;;;;10224994;28;20285;-69
2023/06/03 14:14:36;;;;;;;6.30;3.57;;;24.00;51.10;;;;;;10224890;28;20223;-70
2023/06/03 14:19:37;;;;;;;6.33;3.33;;;24.40;50.30;;;;;;10224857;28;20874;-69
2023/06/03 14:24:43;;;;;;;5.10;3.80;;;24.50;50.10;;;;;;10225907;28;20314;-69
2023/06/03 14:29:47;;;;;;;9.20;3.27;;;24.20;50.10;;;;;;10217818;28;20235;-69
2023/06/03 14:34:48;;;;;;;6.10;3.37;;;24.20;50.10;;;;;;10232207;28;20361;-70
2023/06/03 14:39:48;;;;;;;6.67;3.30;;;24.50;49.90;;;;;;10218809;28;20397;-70
2023/06/03 14:44:49;;;;;;;4.53;3.17;;;24.50;50.00;;;;;;10229595;28;20628;-70
2023/06/03 14:49:55;;;;;;;6.17;3.70;;;24.20;49.00;;;;;;10219783;28;20228;-70
2023/06/03 14:54:56;;;;;;;4.20;3.60;;;24.00;49.30;;;;;;10228556;28;20220;-70
2023/06/03 14:59:56;;;;;;;9.57;3.30;;;23.90;49.40;;;;;;10228055;28;20306;-70
2023/06/03 15:04:57;;;;;;;6.07;3.17;;;24.20;49.60;;;;;;10227402;28;20278;-70
2023/06/03 15:09:58;;;;;;;5.47;3.40;;;24.40;49.60;;;;;;10223450;28;20231;-69
2023/06/03 15:14:58;;;;;;;8.40;3.77;;;24.40;49.00;;;;;;10219775;28;20215;-71
2023/06/03 15:20:00;;;;;;;4.57;3.60;;;24.20;48.40;;;;;;10221143;28;20703;-70
2023/06/03 15:25:00;;;;;;;7.73;3.30;;;24.30;48.50;;;;;;10227087;28;20611;-70
2023/06/03 15:30:01;;;;;;;6.57;3.57;;;24.30;48.30;;;;;;10220153;28;20274;-68
2023/06/03 15:35:03;;;;;;;4.83;3.20;;;24.30;48.40;;;;;;10220036;28;20888;-68
2023/06/03 15:40:04;;;;;;;3.90;3.20;;;24.20;48.30;;;;;;10230064;28;20291;-70
2023/06/03 15:45:06;;;;;;;5.40;3.27;;;23.90;48.80;;;;;;10221076;28;20674;-69
2023/06/03 15:50:07;;;;;;;7.47;3.60;;;24.10;48.20;;;;;;10219230;28;20211;-68
2023/06/03 15:55:07;;;;;;;3.10;2.77;;;23.90;48.10;;;;;;10227662;28;20186;-71
2023/06/03 16:00:09;;;;;;;3.83;2.80;;;23.80;48.50;;;;;;10221885;28;20210;-69
2023/06/03 16:05:09;;;;;;;4.20;2.90;;;24.00;48.80;;;;;;10208115;28;20188;-69
2023/06/03 16:10:11;;;;;;;3.90;2.60;;;24.20;48.40;;;;;;10227433;28;20207;-69
2023/06/03 16:15:12;;;;;;;3.93;2.73;;;24.20;48.30;;;;;;10217781;28;20175;-69
2023/06/03 16:20:13;;;;;;;4.37;2.90;;;24.00;48.20;;;;;;10226617;28;20187;-70
2023/06/03 16:25:14;;;;;;;5.47;3.03;;;24.00;48.20;;;;;;10229185;28;20184;-69
2023/06/03 16:30:15;;;;;;;5.90;3.10;;;24.00;48.80;;;;;;10214115;28;20358;-69
2023/06/03 16:35:16;;;;;;;5.33;2.90;;;23.90;47.80;;;;;;10214235;28;20317;-70
2023/06/03 16:40:16;;;;;;;4.67;3.03;;;23.80;48.50;;;;;;10219567;28;20206;-70
2023/06/03 16:45:17;;;;;;;3.53;2.87;;;23.70;48.30;;;;;;10222287;28;20234;-69
2023/06/03 16:50:18;;;;;;;4.60;2.80;;;23.60;48.80;;;;;;10226674;28;20203;-69
2023/06/03 16:55:18;;;;;;;5.40;2.87;;;23.60;48.70;;;;;;10224872;28;20638;-69
2023/06/03 17:00:19;;;;;;;3.93;2.83;;;23.60;48.40;;;;;;10234476;28;20245;-69
2023/06/03 17:05:20;;;;;;;5.00;2.77;;;23.40;49.10;;;;;;10242552;29;20671;-69
2023/06/03 17:10:20;;;;;;;4.07;2.33;;;23.40;49.70;;;;;;10220549;28;20230;-69
2023/06/03 17:15:21;;;;;;;3.60;2.17;;;23.30;49.30;;;;;;10224510;28;20778;-70
2023/06/03 17:20:22;;;;;;;4.97;2.40;;;23.20;49.90;;;;;;10227888;28;20195;-69
2023/06/03 17:25:25;;;;;;;2.93;2.13;;;23.20;49.60;;;;;;10225534;28;20191;-70
2023/06/03 17:30:26;;;;;;;5.23;2.20;;;23.10;49.80;;;;;;10219811;28;20220;-70
2023/06/03 17:35:26;;;;;;;5.50;2.30;;;23.00;50.10;;;;;;10232281;28;20223;-69
2023/06/03 17:40:27;;;;;;;3.47;1.97;;;22.80;50.00;;;;;;10227729;28;20287;-70
2023/06/03 17:45:28;;;;;;;6.67;2.17;;;22.80;50.30;;;;;;10227127;28;20245;-70
2023/06/03 17:50:29;;;;;;;7.40;2.20;;;22.60;50.10;;;;;;10234166;28;20250;-70
2023/06/03 17:55:30;;;;;;;4.00;2.10;;;22.50;50.40;;;;;;10226891;28;20745;-71
2023/06/03 18:00:31;;;;;;;3.37;2.03;;;22.40;50.40;;;;;;10228787;28;20219;-69
2023/06/03 18:05:32;;;;;;;2.70;1.83;;;22.40;50.80;;;;;;10225613;28;20698;-70
2023/06/03 18:10:32;;;;;;;4.97;2.20;;;22.30;51.10;;;;;;10218843;28;20228;-70
2023/06/03 18:15:34;;;;;;;5.87;2.03;;;22.20;51.20;;;;;;10232699;28;20223;-69
2023/06/03 18:20:34;;;;;;;3.93;1.77;;;22.10;51.20;;;;;;10224837;28;20340;-70
2023/06/03 18:25:35;;;;;;;4.40;1.93;;;21.90;51.60;;;;;;10215717;28;20327;-68
2023/06/03 18:30:36;;;;;;;4.37;1.87;;;21.80;52.00;;;;;;10216359;28;20634;-70
2023/06/03 18:35:36;;;;;;;2.83;1.60;;;21.70;52.20;;;;;;10216757;28;20236;-70
2023/06/03 18:40:37;;;;;;;5.53;1.57;;;21.50;53.30;;;;;;10224515;28;20625;-69
2023/06/03 18:45:37;;;;;;;4.13;2.30;;;21.40;52.90;;;;;;10216269;28;20231;-71
2023/06/03 18:50:38;;;;;;;2.60;1.80;;;21.30;52.90;;;;;;10222807;28;20277;-70
2023/06/03 18:55:40;;;;;;;9.40;1.90;;;21.20;53.10;;;;;;10229544;28;20236;-70
2023/06/03 19:00:40;;;;;;;2.90;1.80;;;21.00;53.40;;;;;;10216242;28;20756;-70
2023/06/03 19:05:41;;;;;;;2.80;2.07;;;20.90;53.80;;;;;;10224788;28;20234;-69
2023/06/03 19:10:43;;;;;;;3.27;1.90;;;20.80;54.20;;;;;;10223888;28;20228;-71
2023/06/03 19:15:45;;;;;;;4.97;2.10;;;20.60;54.10;;;;;;10222598;28;20595;-69
2023/06/03 19:20:48;;;;;;;4.47;1.90;;;20.50;54.30;;;;;;10216719;28;20220;-69
2023/06/03 19:25:49;;;;;;;6.47;1.60;;;20.30;54.60;;;;;;10222597;28;20306;-71
2023/06/03 19:30:49;;;;;;;3.63;1.80;;;20.20;55.10;;;;;;10217684;28;20228;-70
2023/06/03 19:35:50;;;;;;;6.13;1.80;;;20.10;55.40;;;;;;10228824;28;20223;-70
2023/06/03 19:40:50;;;;;;;4.20;1.50;;;19.90;55.50;;;;;;10225932;28;20255;-69
2023/06/03 19:45:51;;;;;;;7.20;1.70;;;19.90;55.50;;;;;;10225031;28;20235;-68
2023/06/03 19:50:53;;;;;;;2.30;1.93;;;19.80;55.50;;;;;;10216197;28;20800;-69
2023/06/03 19:55:55;;;;;;;6.27;2.03;;;19.60;55.60;;;;;;10222114;28;20220;-68
2023/06/03 20:00:55;;;;;;;6.07;1.97;;;19.50;55.80;;;;;;10227473;28;20228;-70
2023/06/03 20:05:57;;;;;;;9.03;2.30;;;19.40;55.90;;;;;;10214522;28;20223;-68
2023/06/03 20:11:00;;;;;;;13.13;1.87;;;19.20;56.20;;;;;;10216358;28;20238;-69
2023/06/03 20:16:01;;;;;;;4.07;1.83;;;19.20;56.20;;;;;;10226312;28;20699;-70
2023/06/03 20:21:02;;;;;;;3.80;1.80;;;19.00;56.30;;;;;;10212796;28;20624;-69
2023/06/03 20:26:03;;;;;;;4.23;1.67;;;18.90;56.30;;;;;;10217703;28;20227;-69
2023/06/03 20:31:07;;;;;;;3.00;1.73;;;18.80;56.40;;;;;;10227850;28;20231;-69
2023/06/03 20:36:08;;;;;;;2.93;1.67;;;18.80;56.60;;;;;;10224595;28;20744;-69
2023/06/03 20:41:08;;;;;;;4.80;1.60;;;18.70;56.60;;;;;;10231230;28;20248;-69
2023/06/03 20:46:09;;;;;;;2.93;1.33;;;18.50;56.60;;;;;;10235494;28;20640;-69
2023/06/03 20:51:11;;;;;;;2.70;1.70;;;18.50;56.90;;;;;;10223807;28;20572;-69
2023/06/03 20:56:11;;;;;;;4.93;1.60;;;18.40;57.00;;;;;;10225406;28;20315;-69
2023/06/03 21:01:12;;;;;;;3.03;2.07;;;18.30;57.20;;;;;;10225764;28;20681;-69
2023/06/03 21:06:13;;;;;;;2.80;1.70;;;18.20;57.40;;;;;;10233662;28;20257;-69
2023/06/03 21:11:13;;;;;;;5.87;2.20;;;18.10;57.60;;;;;;10222371;28;20262;-70
2023/06/03 21:16:14;;;;;;;2.40;1.67;;;18.00;57.90;;;;;;10224467;28;20223;-70
2023/06/03 21:21:15;;;;;;;1.90;1.70;;;17.90;57.90;;;;;;10220973;28;20274;-69
2023/06/03 21:26:15;;;;;;;4.10;1.90;;;17.80;58.10;;;;;;10225651;28;20228;-69
2023/06/03 21:31:16;;;;;;;6.90;1.90;;;17.70;58.30;;;;;;10223239;28;20239;-69
2023/06/03 21:36:16;;;;;;;5.20;1.53;;;17.70;58.70;;;;;;10228116;28;20241;-71
2023/06/03 21:41:17;;;;;;;2.27;1.77;;;17.60;58.80;;;;;;10230223;28;20627;-70
2023/06/03 21:46:19;;;;;;;4.10;1.63;;;17.50;59.10;;;;;;10232947;28;20219;-70
2023/06/03 21:51:19;;;;;;;4.53;1.57;;;17.40;59.40;;;;;;10225973;28;20315;-70
2023/06/03 21:56:20;;;;;;;3.20;1.70;;;17.30;59.60;;;;;;10225138;28;20280;-70
2023/06/03 22:01:24;;;;;;;8.27;2.00;;;17.20;59.90;;;;;;10230076;28;20230;-69
2023/06/03 22:06:27;;;;;;;4.17;2.00;;;17.10;60.20;;;;;;10232440;28;20318;-70
2023/06/03 22:11:30;;;;;;;2.47;1.90;;;17.00;60.60;;;;;;10218841;28;20228;-69
2023/06/03 22:16:31;;;;;;;5.87;1.63;;;16.90;60.60;;;;;;10223614;28;20220;-69
2023/06/03 22:21:31;;;;;;;10.70;1.90;;;16.90;60.90;;;;;;10219749;28;20223;-70
2023/06/03 22:26:32;;;;;;;3.87;1.83;;;16.70;61.10;;;;;;10226185;28;20727;-69
2023/06/03 22:31:32;;;;;;;5.27;1.70;;;16.70;61.60;;;;;;10232361;28;20228;-70
2023/06/03 22:36:33;;;;;;;2.90;2.00;;;16.50;61.90;;;;;;10216297;28;20224;-70
2023/06/03 22:41:34;;;;;;;4.37;2.00;;;16.40;62.40;;;;;;10224551;28;20235;-69
2023/06/03 22:46:34;;;;;;;4.23;1.90;;;16.30;62.80;;;;;;10216332;28;20229;-70
2023/06/03 22:51:36;;;;;;;2.73;1.50;;;16.20;63.10;;;;;;10216225;28;20238;-70
2023/06/03 22:56:37;;;;;;;5.83;1.57;;;16.10;63.60;;;;;;10222786;28;20258;-70
2023/06/03 23:01:41;;;;;;;4.67;2.10;;;16.00;63.90;;;;;;10230166;28;20296;-69
2023/06/03 23:06:41;;;;;;;3.93;2.27;;;16.00;64.50;;;;;;10216212;28;20232;-69
2023/06/03 23:11:42;;;;;;;2.73;1.70;;;15.80;64.80;;;;;;10226413;28;20223;-69
2023/06/03 23:16:42;;;;;;;5.60;2.00;;;15.70;65.20;;;;;;10221161;28;20239;-70
2023/06/03 23:21:43;;;;;;;5.20;2.20;;;15.70;65.60;;;;;;10220978;28;20712;-71
2023/06/03 23:26:44;;;;;;;3.53;1.87;;;15.60;65.90;;;;;;10215996;28;20282;-70
2023/06/03 23:31:44;;;;;;;2.17;1.70;;;15.50;66.20;;;;;;10220090;28;20234;-69
2023/06/03 23:36:45;;;;;;;3.30;1.47;;;15.40;66.40;;;;;;10214996;28;20228;-69
2023/06/03 23:41:46;;;;;;;7.23;1.63;;;15.30;66.70;;;;;;10221819;28;20238;-69
2023/06/03 23:46:46;;;;;;;5.97;1.53;;;15.20;67.00;;;;;;10229450;28;20230;-68
2023/06/03 23:51:47;;;;;;;3.87;1.63;;;15.10;67.20;;;;;;10216087;28;20239;-69
2023/06/03 23:56:47;;;;;;;1.83;1.40;;;15.10;67.50;;;;;;10230253;28;20224;-70
